Time;durP1;ratioP1;P1;durP2;ratioP2;P2;SDS_P1;SDS_P2;PMS_P1;PMS_P2;Temp;Humidity;BMP_temperature;BMP_pressure;BME280_temperature;BME280_humidity;BME280_pressure;Samples;Min_cycle;Max_cycle;Signal;HPM_P1;HPM_P2
2022/06/09 00:01:03;;;;;;;15.93;11.52;;;14.20;99.90;;;;;;5055454;28;20044;-72
2022/06/09 00:03:34;;;;;;;16.60;13.23;;;14.00;99.90;;;;;;5055307;28;20025;-72
2022/06/09 00:06:00;;;;;;;21.40;15.38;;;14.10;99.90;;;;;;5036732;28;20014;-72
2022/06/09 00:08:29;;;;;;;23.33;15.95;;;14.10;99.90;;;;;;5035633;28;20018;-72
2022/06/09 00:11:00;;;;;;;19.13;14.05;;;14.00;99.90;;;;;;5035287;28;20021;-72
2022/06/09 00:13:25;;;;;;;17.52;13.57;;;14.10;99.90;;;;;;5035804;28;20037;-72
2022/06/09 00:15:51;;;;;;;16.75;10.80;;;14.10;99.90;;;;;;5035663;28;20026;-72
2022/06/09 00:18:17;;;;;;;13.27;10.45;;;14.10;99.90;;;;;;5035105;28;20096;-72
2022/06/09 00:20:43;;;;;;;11.98;10.77;;;14.10;99.90;;;;;;5035351;28;20034;-72
2022/06/09 00:23:10;;;;;;;15.13;11.52;;;14.10;99.90;;;;;;5035119;28;20101;-72
2022/06/09 00:25:36;;;;;;;15.63;11.75;;;14.10;99.90;;;;;;5035093;28;20108;-72
2022/06/09 00:28:02;;;;;;;16.27;11.98;;;14.10;99.90;;;;;;5035466;28;20072;-73
2022/06/09 00:30:27;;;;;;;13.27;11.35;;;14.10;99.90;;;;;;5035095;28;20022;-74
2022/06/09 00:32:53;;;;;;;13.38;11.45;;;14.20;99.90;;;;;;5035140;28;20029;-74
2022/06/09 00:35:19;;;;;;;20.40;11.65;;;14.20;99.90;;;;;;5034966;28;20030;-74
2022/06/09 00:37:44;;;;;;;12.48;10.65;;;14.10;99.90;;;;;;5034655;28;20107;-74
2022/06/09 00:40:12;;;;;;;12.50;10.35;;;14.20;99.90;;;;;;5035238;28;20030;-73
2022/06/09 00:42:38;;;;;;;14.73;10.80;;;14.20;99.90;;;;;;5034838;28;20100;-74
2022/06/09 00:45:22;;;;;;;14.52;12.10;;;14.30;99.90;;;;;;5034758;28;20052;-74
2022/06/09 00:47:50;;;;;;;15.77;13.18;;;14.20;99.90;;;;;;5034779;28;20032;-74
2022/06/09 00:50:19;;;;;;;21.35;14.63;;;14.30;99.90;;;;;;5034698;28;20113;-73
2022/06/09 00:52:50;;;;;;;18.60;12.68;;;14.20;99.90;;;;;;5035111;28;20041;-73
2022/06/09 00:55:19;;;;;;;17.13;12.13;;;14.20;99.90;;;;;;5034677;28;20485;-73
2022/06/09 00:57:50;;;;;;;13.68;11.52;;;14.20;99.90;;;;;;5034535;28;20478;-73
2022/06/09 01:00:21;;;;;;;14.10;12.60;;;14.10;99.90;;;;;;5034855;28;20025;-73
2022/06/09 01:02:47;;;;;;;20.70;15.50;;;14.20;99.90;;;;;;5034917;28;20021;-73
2022/06/09 01:05:15;;;;;;;15.15;13.13;;;14.30;99.90;;;;;;5034423;28;20047;-73
2022/06/09 01:07:44;;;;;;;14.95;12.38;;;14.20;99.90;;;;;;5034467;28;20445;-73
2022/06/09 01:10:11;;;;;;;12.75;10.77;;;14.20;99.90;;;;;;5034410;28;20489;-73
2022/06/09 01:12:43;;;;;;;13.00;10.55;;;14.10;99.90;;;;;;5034387;28;20029;-73
2022/06/09 01:15:14;;;;;;;14.32;11.00;;;14.20;99.90;;;;;;5034635;28;20033;-73
2022/06/09 01:18:08;;;;;;;13.93;11.13;;;14.20;99.90;;;;;;5034329;28;20481;-74
2022/06/09 01:20:57;;;;;;;18.60;14.30;;;14.20;99.90;;;;;;5034312;28;20060;-74
2022/06/09 01:24:11;;;;;;;18.83;12.95;;;14.30;99.90;;;;;;5033260;28;20457;-74
2022/06/09 01:26:56;;;;;;;15.00;12.32;;;14.20;99.90;;;;;;5020787;28;20041;-73
2022/06/09 01:29:47;;;;;;;16.55;13.18;;;14.20;99.90;;;;;;5034246;28;20026;-73
2022/06/09 01:32:25;;;;;;;18.25;15.02;;;14.20;99.90;;;;;;5033773;28;20112;-74
2022/06/09 01:34:59;;;;;;;21.10;15.40;;;14.20;99.90;;;;;;5034395;28;20024;-73
2022/06/09 01:37:33;;;;;;;22.00;16.60;;;14.20;99.90;;;;;;5034576;28;20026;-73
2022/06/09 01:40:02;;;;;;;24.58;19.00;;;14.30;99.90;;;;;;5036204;28;20032;-74
2022/06/09 01:42:36;;;;;;;26.75;18.25;;;14.30;99.90;;;;;;5035356;28;20021;-73
2022/06/09 01:45:12;;;;;;;27.73;20.77;;;14.30;99.90;;;;;;5034160;28;20030;-73
2022/06/09 01:47:43;;;;;;;27.55;21.55;;;14.30;99.90;;;;;;5033891;28;20473;-74
2022/06/09 01:50:15;;;;;;;26.05;19.42;;;14.30;99.90;;;;;;5033418;28;20029;-74
2022/06/09 01:52:42;;;;;;;25.52;19.15;;;14.30;99.90;;;;;;5034224;28;20030;-74
2022/06/09 01:55:13;;;;;;;27.63;21.17;;;14.20;99.90;;;;;;5033764;28;20433;-73
2022/06/09 01:57:42;;;;;;;30.25;22.33;;;14.30;99.90;;;;;;5033796;28;20026;-73
2022/06/09 02:00:12;;;;;;;29.77;22.15;;;14.30;99.90;;;;;;5034149;28;20030;-74
2022/06/09 02:03:01;;;;;;;33.63;24.55;;;14.30;99.90;;;;;;5034107;28;20484;-74
2022/06/09 02:05:30;;;;;;;30.75;22.05;;;14.40;99.90;;;;;;5033545;28;20040;-74
2022/06/09 02:08:00;;;;;;;32.50;23.55;;;14.40;99.90;;;;;;5033775;28;20167;-73
2022/06/09 02:10:39;;;;;;;30.70;23.85;;;14.40;99.90;;;;;;5033944;28;20024;-73
2022/06/09 02:13:20;;;;;;;35.38;25.77;;;14.30;99.90;;;;;;5033714;28;20029;-73
2022/06/09 02:15:50;;;;;;;34.53;24.70;;;14.20;99.90;;;;;;5034032;28;20037;-73
2022/06/09 02:18:19;;;;;;;35.88;26.58;;;14.20;99.90;;;;;;5033900;28;20044;-73
2022/06/09 02:21:23;;;;;;;39.08;27.65;;;14.20;99.90;;;;;;5033637;28;20033;-73
2022/06/09 02:23:49;;;;;;;38.85;28.95;;;14.30;99.90;;;;;;5033594;28;20566;-73
2022/06/09 02:26:16;;;;;;;42.53;31.08;;;14.30;99.90;;;;;;5031937;28;20045;-73
2022/06/09 02:28:42;;;;;;;44.15;30.55;;;14.30;99.90;;;;;;5034118;28;20021;-73
2022/06/09 02:31:08;;;;;;;40.35;30.45;;;14.30;99.90;;;;;;5033542;28;20116;-73
2022/06/09 02:33:34;;;;;;;43.92;32.28;;;14.40;99.90;;;;;;5034612;28;20034;-73
2022/06/09 02:35:59;;;;;;;49.85;33.33;;;14.40;99.90;;;;;;5033557;28;20061;-73
2022/06/09 02:38:26;;;;;;;41.50;29.75;;;14.30;99.90;;;;;;5033678;28;20029;-73
2022/06/09 02:40:54;;;;;;;44.65;30.75;;;14.30;99.90;;;;;;5033578;28;20026;-73
2022/06/09 02:43:20;;;;;;;36.65;28.52;;;14.40;99.90;;;;;;5033553;28;20028;-73
2022/06/09 02:45:46;;;;;;;41.67;29.25;;;14.30;99.90;;;;;;5033427;28;20028;-73
2022/06/09 02:48:12;;;;;;;45.22;29.85;;;14.20;99.90;;;;;;5033341;28;20093;-73
2022/06/09 02:50:38;;;;;;;37.40;28.17;;;14.20;99.90;;;;;;5033419;28;20026;-73
2022/06/09 02:53:05;;;;;;;41.38;28.90;;;14.20;99.90;;;;;;5033075;28;20037;-74
2022/06/09 02:55:30;;;;;;;37.53;28.48;;;14.30;99.90;;;;;;5033335;28;20033;-74
2022/06/09 02:57:56;;;;;;;41.92;30.23;;;14.30;99.90;;;;;;5033386;28;20533;-74
2022/06/09 03:00:22;;;;;;;40.88;29.38;;;14.30;99.90;;;;;;5033619;28;20033;-74
2022/06/09 03:02:57;;;;;;;38.53;28.98;;;14.20;99.90;;;;;;5036463;28;20390;-74
2022/06/09 03:05:24;;;;;;;37.45;28.33;;;14.20;99.90;;;;;;5036813;28;20053;-74
2022/06/09 03:07:50;;;;;;;39.30;29.10;;;14.20;99.90;;;;;;5036558;28;20148;-74
2022/06/09 03:10:16;;;;;;;45.53;31.60;;;14.20;99.90;;;;;;5036613;28;20045;-74
2022/06/09 03:12:42;;;;;;;48.65;35.17;;;14.20;99.90;;;;;;5036545;28;20040;-74
2022/06/09 03:15:10;;;;;;;48.75;35.70;;;14.20;99.90;;;;;;5036663;28;20033;-74
2022/06/09 03:17:37;;;;;;;53.42;36.53;;;14.30;99.90;;;;;;5036086;28;20517;-74
2022/06/09 03:20:08;;;;;;;50.42;34.15;;;14.30;99.90;;;;;;5036482;28;20030;-74
2022/06/09 03:22:34;;;;;;;59.80;37.55;;;14.30;99.90;;;;;;5036151;28;20036;-74
2022/06/09 03:25:00;;;;;;;58.95;39.83;;;14.30;99.90;;;;;;5036365;28;20021;-74
2022/06/09 03:27:26;;;;;;;53.25;38.90;;;14.30;99.90;;;;;;5036367;28;20124;-74
2022/06/09 03:29:52;;;;;;;56.08;39.33;;;14.30;99.90;;;;;;5036674;28;20059;-74
2022/06/09 03:32:17;;;;;;;55.75;38.42;;;14.30;99.90;;;;;;5036241;28;20018;-74
2022/06/09 03:34:43;;;;;;;55.75;37.30;;;14.30;99.90;;;;;;5036637;28;20105;-74
2022/06/09 03:37:09;;;;;;;53.60;38.67;;;14.40;99.90;;;;;;5036364;28;20021;-74
2022/06/09 03:39:34;;;;;;;46.63;34.80;;;14.40;99.90;;;;;;5035941;28;20355;-74
2022/06/09 03:42:00;;;;;;;57.97;38.85;;;14.40;99.90;;;;;;5034833;28;20025;-74
2022/06/09 03:44:26;;;;;;;58.60;40.58;;;14.40;99.90;;;;;;5034571;28;20026;-73
2022/06/09 03:46:51;;;;;;;60.33;39.20;;;14.40;99.90;;;;;;5036133;28;20405;-73
2022/06/09 03:49:17;;;;;;;59.65;38.83;;;14.40;99.90;;;;;;5035994;28;20033;-73
2022/06/09 03:51:42;;;;;;;59.05;38.33;;;14.50;99.90;;;;;;5036495;28;20030;-73
2022/06/09 03:54:08;;;;;;;50.03;34.00;;;14.50;99.90;;;;;;5035874;28;20076;-73
2022/06/09 03:56:34;;;;;;;61.03;39.97;;;14.50;99.90;;;;;;5036062;28;20088;-74
2022/06/09 03:59:00;;;;;;;55.08;39.42;;;14.50;99.90;;;;;;5035838;28;20026;-74
2022/06/09 04:01:25;;;;;;;54.10;37.00;;;14.50;99.90;;;;;;5034004;28;20108;-74
2022/06/09 04:03:51;;;;;;;48.20;33.10;;;14.60;99.90;;;;;;5037926;28;20033;-74
2022/06/09 04:06:23;;;;;;;55.13;34.33;;;14.50;99.90;;;;;;5034098;28;20051;-74
2022/06/09 04:08:50;;;;;;;53.60;35.80;;;14.60;99.90;;;;;;5023669;28;20025;-74
2022/06/09 04:11:17;;;;;;;54.15;35.50;;;14.50;99.90;;;;;;5035310;28;20026;-74
2022/06/09 04:13:43;;;;;;;49.35;33.10;;;14.50;99.90;;;;;;5035534;28;20026;-74
2022/06/09 04:16:21;;;;;;;56.45;34.08;;;14.50;99.90;;;;;;5030949;28;20021;-74
2022/06/09 04:18:47;;;;;;;47.33;30.25;;;14.50;99.90;;;;;;5015498;28;20060;-74
2022/06/09 04:21:13;;;;;;;46.90;32.97;;;14.50;99.90;;;;;;5019367;28;20108;-74
2022/06/09 04:23:38;;;;;;;42.30;29.08;;;14.50;99.90;;;;;;5035185;28;20021;-74
2022/06/09 04:26:04;;;;;;;54.63;34.63;;;14.50;99.90;;;;;;5035136;28;20384;-74
2022/06/09 04:28:29;;;;;;;50.13;31.20;;;14.50;99.90;;;;;;5035402;28;20025;-74
2022/06/09 04:30:55;;;;;;;50.75;29.80;;;14.50;99.90;;;;;;5035474;28;20427;-74
2022/06/09 04:33:20;;;;;;;35.15;24.33;;;14.50;99.90;;;;;;5035174;28;20099;-74
2022/06/09 04:35:46;;;;;;;36.35;23.85;;;14.50;99.90;;;;;;5035155;28;20033;-74
2022/06/09 04:38:12;;;;;;;35.72;21.95;;;14.50;99.90;;;;;;5035254;28;20038;-74
2022/06/09 04:40:40;;;;;;;30.30;21.05;;;14.50;99.90;;;;;;5035305;28;20026;-74
2022/06/09 04:43:10;;;;;;;36.03;20.38;;;14.50;99.90;;;;;;5035088;28;20040;-74
2022/06/09 04:45:37;;;;;;;39.47;20.40;;;14.40;99.90;;;;;;5035171;28;20017;-74
2022/06/09 04:48:03;;;;;;;23.67;16.45;;;14.40;99.90;;;;;;5034596;28;20017;-74
2022/06/09 04:50:30;;;;;;;24.17;16.48;;;14.40;99.90;;;;;;5034784;28;20021;-74
2022/06/09 04:52:57;;;;;;;25.23;15.15;;;14.40;99.90;;;;;;5034763;28;20061;-74
2022/06/09 04:55:23;;;;;;;20.13;14.68;;;14.40;99.90;;;;;;5034816;28;20036;-74
2022/06/09 04:57:48;;;;;;;20.73;15.13;;;14.40;99.90;;;;;;5034653;28;20087;-74
2022/06/09 05:00:16;;;;;;;21.40;13.32;;;14.40;99.90;;;;;;5034536;28;20481;-74
2022/06/09 05:02:42;;;;;;;22.08;12.27;;;14.40;99.90;;;;;;5034753;28;20029;-74
2022/06/09 05:05:14;;;;;;;16.02;10.27;;;14.50;99.90;;;;;;5034615;28;20381;-74
2022/06/09 05:07:39;;;;;;;15.43;9.00;;;14.50;99.90;;;;;;5034656;28;20025;-74
2022/06/09 05:10:05;;;;;;;14.80;7.82;;;14.50;99.90;;;;;;5034525;28;20021;-74
2022/06/09 05:12:31;;;;;;;11.98;7.75;;;14.50;99.90;;;;;;5034949;28;20026;-74
2022/06/09 05:14:56;;;;;;;14.00;8.32;;;14.60;99.90;;;;;;5049778;28;20104;-74
2022/06/09 05:17:22;;;;;;;16.92;8.13;;;14.60;99.90;;;;;;5034791;28;20028;-74
2022/06/09 05:19:48;;;;;;;11.05;6.57;;;14.60;99.90;;;;;;5034241;28;20032;-74
2022/06/09 05:22:13;;;;;;;7.97;5.68;;;14.70;99.90;;;;;;5034251;28;20053;-74
2022/06/09 05:24:39;;;;;;;11.15;7.13;;;14.80;99.90;;;;;;5033491;28;20029;-74
2022/06/09 05:27:05;;;;;;;16.10;9.27;;;14.80;99.90;;;;;;5032680;28;20052;-72
2022/06/09 05:29:30;;;;;;;14.00;7.95;;;14.90;99.90;;;;;;5034162;28;20026;-72
2022/06/09 05:31:56;;;;;;;11.77;7.95;;;14.80;99.90;;;;;;5034213;28;20091;-72
2022/06/09 05:34:21;;;;;;;14.32;9.02;;;14.80;99.90;;;;;;5034107;28;20033;-72
2022/06/09 05:36:47;;;;;;;17.20;8.88;;;14.80;99.90;;;;;;5033969;28;20535;-72
2022/06/09 05:44:54;;;;;;;;;;;14.70;99.90;;;;;;5034277;28;20616;-72
2022/06/09 05:47:21;;;;;;;14.35;7.97;;;14.70;99.90;;;;;;5033830;28;19905;-71
2022/06/09 05:49:48;;;;;;;19.38;10.60;;;14.80;99.90;;;;;;5034188;28;20025;-71
2022/06/09 05:52:15;;;;;;;16.23;9.88;;;14.70;99.90;;;;;;5034151;28;20068;-72
2022/06/09 05:54:41;;;;;;;15.50;11.23;;;14.80;99.90;;;;;;5033893;28;20486;-71
2022/06/09 05:57:07;;;;;;;17.25;13.13;;;15.00;99.90;;;;;;5033719;28;20463;-72
2022/06/09 05:59:33;;;;;;;16.88;11.45;;;15.00;99.90;;;;;;5033895;28;20029;-71
2022/06/09 06:01:58;;;;;;;16.05;12.10;;;15.10;99.90;;;;;;5033922;28;20466;-71
2022/06/09 06:04:24;;;;;;;15.15;11.10;;;15.10;99.90;;;;;;5033755;28;20450;-71
2022/06/09 06:06:49;;;;;;;15.48;11.27;;;15.10;99.90;;;;;;5033817;28;20030;-71
2022/06/09 06:09:23;;;;;;;18.42;11.68;;;15.20;99.90;;;;;;5034050;28;20378;-71
2022/06/09 06:11:49;;;;;;;12.90;10.13;;;15.10;99.90;;;;;;5033985;28;20021;-71
2022/06/09 06:14:16;;;;;;;14.27;10.73;;;15.10;99.90;;;;;;5033732;28;20025;-71
2022/06/09 06:16:42;;;;;;;10.60;8.88;;;15.10;99.90;;;;;;5034085;28;20037;-71
2022/06/09 06:19:10;;;;;;;13.00;9.48;;;15.10;99.90;;;;;;5033900;28;20050;-71
2022/06/09 06:21:38;;;;;;;14.55;10.77;;;15.10;99.90;;;;;;5033546;28;20549;-71
2022/06/09 06:24:04;;;;;;;5.05;4.55;;;15.20;99.90;;;;;;5033599;28;20051;-70
2022/06/09 06:26:31;;;;;;;7.43;3.38;;;15.10;99.90;;;;;;5034077;28;20094;-70
2022/06/09 06:28:57;;;;;;;7.32;2.83;;;14.80;99.90;;;;;;5035514;28;20029;-68
2022/06/09 06:31:22;;;;;;;3.28;2.83;;;14.50;99.90;;;;;;5034408;28;20014;-68
2022/06/09 06:33:48;;;;;;;3.85;2.67;;;14.40;99.90;;;;;;5033511;28;20032;-68
2022/06/09 06:36:14;;;;;;;6.75;3.08;;;14.40;99.90;;;;;;5036474;28;20120;-69
2022/06/09 06:38:40;;;;;;;2.97;2.60;;;14.40;99.90;;;;;;5037107;28;20390;-68
2022/06/09 06:41:08;;;;;;;6.47;2.67;;;14.40;99.90;;;;;;5037099;28;20021;-69
2022/06/09 06:43:34;;;;;;;2.95;2.63;;;14.40;99.90;;;;;;5035633;28;20112;-69
2022/06/09 06:46:00;;;;;;;3.70;2.60;;;14.40;99.90;;;;;;5035775;28;20026;-69
2022/06/09 06:48:26;;;;;;;2.75;2.35;;;14.50;99.90;;;;;;5036797;28;20080;-68
2022/06/09 06:50:52;;;;;;;3.97;2.15;;;14.50;99.90;;;;;;5036828;28;20021;-69
2022/06/09 06:53:17;;;;;;;4.68;1.80;;;14.50;99.90;;;;;;5036815;28;20029;-69
2022/06/09 06:55:43;;;;;;;8.90;1.83;;;14.50;99.90;;;;;;5037014;28;20030;-69
2022/06/09 06:58:09;;;;;;;4.55;2.35;;;14.50;99.90;;;;;;5036894;28;20052;-69
2022/06/09 07:00:35;;;;;;;3.25;1.85;;;14.50;99.90;;;;;;5036663;28;20478;-69
2022/06/09 07:03:02;;;;;;;3.42;1.80;;;14.60;99.90;;;;;;5036851;28;20037;-69
2022/06/09 07:05:28;;;;;;;3.55;1.85;;;14.70;99.90;;;;;;5036590;28;20021;-69
2022/06/09 07:07:53;;;;;;;4.57;2.30;;;14.80;99.90;;;;;;5036525;28;20105;-69
2022/06/09 07:10:20;;;;;;;4.53;2.30;;;14.90;99.90;;;;;;5036358;28;20049;-68
2022/06/09 07:12:45;;;;;;;3.17;2.10;;;14.90;99.90;;;;;;5036486;28;20428;-68
2022/06/09 07:15:14;;;;;;;5.78;2.10;;;15.00;99.90;;;;;;5036398;28;20068;-69
2022/06/09 07:17:40;;;;;;;2.17;1.98;;;15.00;99.90;;;;;;5036300;28;20051;-70
2022/06/09 07:20:08;;;;;;;5.45;2.33;;;14.90;99.90;;;;;;5036269;28;20025;-70
2022/06/09 07:22:33;;;;;;;3.97;2.50;;;15.10;99.90;;;;;;5036244;28;20080;-68
2022/06/09 07:24:59;;;;;;;2.88;2.22;;;15.20;99.90;;;;;;5036244;28;20025;-68
2022/06/09 07:27:25;;;;;;;6.55;2.40;;;15.20;99.90;;;;;;5035935;28;20449;-69
2022/06/09 07:29:52;;;;;;;3.88;2.42;;;15.20;99.90;;;;;;5036042;28;20022;-69
2022/06/09 07:32:17;;;;;;;4.22;2.25;;;15.20;99.90;;;;;;5034844;28;20032;-69
2022/06/09 07:34:43;;;;;;;3.55;2.17;;;15.30;99.90;;;;;;5036471;28;20033;-69
2022/06/09 07:37:10;;;;;;;5.25;2.05;;;15.40;99.90;;;;;;5035807;28;20501;-69
2022/06/09 07:39:35;;;;;;;3.97;2.10;;;15.40;99.90;;;;;;5036268;28;20026;-70
2022/06/09 07:42:01;;;;;;;4.70;1.73;;;15.40;99.90;;;;;;5035845;28;20033;-70
2022/06/09 07:44:27;;;;;;;3.28;1.90;;;15.50;99.90;;;;;;5035848;28;20033;-69
2022/06/09 07:46:53;;;;;;;2.70;2.03;;;15.60;99.90;;;;;;5034976;28;20029;-70
2022/06/09 07:49:19;;;;;;;3.03;1.38;;;15.70;99.90;;;;;;5035683;28;20022;-69
2022/06/09 07:51:45;;;;;;;2.83;1.60;;;15.80;99.90;;;;;;5035711;28;20032;-70
2022/06/09 07:54:10;;;;;;;4.25;1.40;;;16.00;99.90;;;;;;5035577;28;20116;-70
2022/06/09 07:56:36;;;;;;;3.63;1.85;;;15.90;99.90;;;;;;5035436;28;20025;-70
2022/06/09 07:59:06;;;;;;;3.65;1.52;;;16.00;99.90;;;;;;5035495;28;20108;-70
2022/06/09 08:01:32;;;;;;;3.33;1.30;;;16.00;99.90;;;;;;5035553;28;20022;-70
2022/06/09 08:03:57;;;;;;;2.17;1.15;;;16.10;99.90;;;;;;5035284;28;20029;-70
2022/06/09 08:06:23;;;;;;;3.95;1.58;;;16.10;99.90;;;;;;5034157;28;20045;-70
2022/06/09 08:08:50;;;;;;;1.42;1.33;;;16.20;99.90;;;;;;5035489;28;20101;-70
2022/06/09 08:11:17;;;;;;;1.88;1.40;;;16.50;99.90;;;;;;5034160;28;20030;-70
2022/06/09 08:13:43;;;;;;;2.67;1.20;;;16.40;99.90;;;;;;5035621;28;20029;-70
2022/06/09 08:16:08;;;;;;;6.65;1.60;;;16.50;99.90;;;;;;5035534;28;20032;-70
2022/06/09 08:18:34;;;;;;;4.40;2.10;;;16.60;99.90;;;;;;5035477;28;20094;-70
2022/06/09 08:21:00;;;;;;;8.90;1.70;;;16.60;99.90;;;;;;5035132;28;20055;-70
2022/06/09 08:23:27;;;;;;;7.15;1.30;;;16.60;99.90;;;;;;5034895;28;20036;-69
2022/06/09 08:25:56;;;;;;;2.92;1.50;;;16.80;99.90;;;;;;5035073;28;20504;-70
2022/06/09 08:28:22;;;;;;;7.95;1.20;;;17.40;99.90;;;;;;5034796;28;20022;-70
2022/06/09 08:30:52;;;;;;;2.22;0.82;;;17.60;99.90;;;;;;5035753;28;20132;-70
2022/06/09 08:33:18;;;;;;;2.35;1.02;;;17.60;99.90;;;;;;5035669;28;20381;-70
2022/06/09 08:35:44;;;;;;;3.03;1.20;;;17.50;99.90;;;;;;5034849;28;20029;-70
2022/06/09 08:38:10;;;;;;;3.45;1.58;;;17.50;99.90;;;;;;5034630;28;20033;-70
2022/06/09 08:40:51;;;;;;;2.15;1.30;;;17.50;99.90;;;;;;5034811;28;20110;-70
2022/06/09 08:43:19;;;;;;;3.08;1.23;;;17.70;99.90;;;;;;5034924;28;20108;-70
2022/06/09 08:45:47;;;;;;;2.35;1.00;;;17.70;99.90;;;;;;5033404;28;20036;-70
2022/06/09 08:48:22;;;;;;;5.05;1.27;;;17.60;99.90;;;;;;5035082;28;20026;-70
2022/06/09 08:51:17;;;;;;;3.45;1.10;;;17.40;99.90;;;;;;5035943;28;20363;-70
2022/06/09 08:53:51;;;;;;;2.08;1.13;;;17.40;99.90;;;;;;5033598;28;20466;-70
2022/06/09 08:56:26;;;;;;;2.15;1.08;;;17.10;99.90;;;;;;5034504;28;20500;-70
2022/06/09 08:58:59;;;;;;;1.27;1.00;;;17.10;99.90;;;;;;5034791;28;20427;-70
2022/06/09 09:01:47;;;;;;;2.58;1.60;;;17.20;99.90;;;;;;5034105;28;20030;-70
2022/06/09 09:04:31;;;;;;;3.20;1.70;;;17.00;99.90;;;;;;5033138;28;20401;-70
2022/06/09 09:07:00;;;;;;;3.28;1.60;;;16.80;99.90;;;;;;5034815;28;20080;-70
2022/06/09 09:09:30;;;;;;;3.05;1.40;;;16.70;99.90;;;;;;5034382;28;20018;-71
2022/06/09 09:12:17;;;;;;;7.60;2.08;;;16.80;99.90;;;;;;5034134;28;20470;-71
2022/06/09 09:15:18;;;;;;;3.75;1.73;;;16.70;99.90;;;;;;5033155;28;20561;-70
2022/06/09 09:18:05;;;;;;;4.43;1.65;;;16.70;99.90;;;;;;5030976;28;20041;-73
2022/06/09 09:20:45;;;;;;;1.73;1.30;;;16.90;99.90;;;;;;5034294;28;20026;-73
2022/06/09 09:23:11;;;;;;;2.45;1.55;;;16.90;99.90;;;;;;5033976;28;20048;-73
2022/06/09 09:25:57;;;;;;;3.55;2.10;;;16.90;99.90;;;;;;5034293;28;20365;-73
2022/06/09 09:28:42;;;;;;;5.55;3.33;;;16.90;99.90;;;;;;5049198;28;20037;-73
2022/06/09 09:31:23;;;;;;;7.50;3.90;;;16.90;99.90;;;;;;5032708;28;20052;-72
2022/06/09 09:33:49;;;;;;;4.57;3.53;;;16.90;99.90;;;;;;5033746;28;20387;-73
2022/06/09 09:36:26;;;;;;;5.20;4.68;;;16.90;99.90;;;;;;5034074;28;20021;-73
2022/06/09 09:39:14;;;;;;;4.55;3.53;;;16.80;99.90;;;;;;5034144;28;20079;-72
2022/06/09 09:41:40;;;;;;;7.10;3.58;;;17.00;99.90;;;;;;5033959;28;20021;-71
2022/06/09 09:44:18;;;;;;;7.75;4.25;;;17.10;99.90;;;;;;5034024;28;20033;-71
2022/06/09 09:46:55;;;;;;;6.30;4.32;;;17.30;99.90;;;;;;5033972;28;20413;-70
2022/06/09 09:49:35;;;;;;;6.57;4.53;;;17.30;99.90;;;;;;5033711;28;20481;-71
2022/06/09 09:52:01;;;;;;;6.35;4.97;;;17.30;99.90;;;;;;5033967;28;20066;-71
2022/06/09 09:54:29;;;;;;;8.40;5.50;;;17.20;99.90;;;;;;5033824;28;20033;-70
2022/06/09 09:57:13;;;;;;;7.20;5.03;;;17.00;99.90;;;;;;5033829;28;20036;-71
2022/06/09 09:59:46;;;;;;;6.53;5.80;;;16.60;99.90;;;;;;5034085;28;20088;-71
2022/06/09 10:08:39;;;;;;;9.05;6.63;;;16.50;99.90;;;;;;5033815;28;20076;-71
2022/06/09 10:14:00;;;;;;;6.68;5.68;;;16.70;99.90;;;;;;5037850;28;20096;-71
2022/06/09 10:16:29;;;;;;;5.72;5.15;;;16.90;99.90;;;;;;5036300;28;20025;-71
2022/06/09 10:18:59;;;;;;;7.00;4.97;;;16.80;99.90;;;;;;5036246;28;20124;-71
2022/06/09 10:21:25;;;;;;;7.80;5.22;;;16.70;99.90;;;;;;5037833;28;20065;-71
2022/06/09 10:24:07;;;;;;;9.52;5.82;;;16.70;99.90;;;;;;5037579;28;20018;-71
2022/06/09 10:26:36;;;;;;;5.55;4.30;;;16.90;99.90;;;;;;5037239;28;20021;-71
2022/06/09 10:29:36;;;;;;;5.90;3.95;;;17.10;99.90;;;;;;5037572;28;20022;-71
2022/06/09 10:32:06;;;;;;;5.55;4.13;;;17.30;99.90;;;;;;5035849;28;20030;-71
2022/06/09 10:34:43;;;;;;;5.47;3.40;;;17.30;99.90;;;;;;5035761;28;20021;-71
2022/06/09 10:37:14;;;;;;;4.43;2.85;;;17.40;99.90;;;;;;5021984;28;20038;-71
2022/06/09 10:40:01;;;;;;;6.45;3.95;;;17.60;99.90;;;;;;5016033;28;20076;-71
2022/06/09 10:42:45;;;;;;;8.10;3.97;;;17.80;99.90;;;;;;5021553;28;20109;-71
2022/06/09 10:45:18;;;;;;;8.48;5.10;;;17.70;99.90;;;;;;5017676;28;20470;-69
2022/06/09 10:57:01;;;;;;;2.88;1.95;;;17.20;99.90;;;;;;5036928;28;20029;-69
2022/06/09 10:59:54;;;;;;;3.08;1.88;;;17.10;99.90;;;;;;5036945;28;20021;-69
2022/06/09 11:02:26;;;;;;;1.63;1.10;;;17.90;99.90;;;;;;5036986;28;20025;-68
2022/06/09 11:04:53;;;;;;;2.97;1.60;;;18.50;99.90;;;;;;5036851;28;20405;-68
2022/06/09 11:07:47;;;;;;;5.55;1.60;;;18.70;99.90;;;;;;5036577;28;20021;-69
2022/06/09 11:10:26;;;;;;;1.25;1.15;;;18.70;99.90;;;;;;5036774;28;20026;-68
2022/06/09 11:13:22;;;;;;;2.90;1.65;;;18.70;99.90;;;;;;5036798;28;20490;-68
2022/06/09 11:16:00;;;;;;;6.68;2.55;;;18.70;99.90;;;;;;5038000;28;20033;-69
2022/06/09 11:19:01;;;;;;;6.05;2.03;;;18.50;99.90;;;;;;5037344;28;20026;-68
2022/06/09 11:21:56;;;;;;;7.25;2.00;;;18.40;99.90;;;;;;5035301;28;20056;-68
2022/06/09 11:24:21;;;;;;;3.17;2.08;;;18.40;99.90;;;;;;5034626;28;20034;-68
2022/06/09 11:27:03;;;;;;;3.55;2.17;;;18.50;99.90;;;;;;5034734;28;20126;-68
2022/06/09 11:30:06;;;;;;;5.38;2.10;;;18.50;99.90;;;;;;5036544;28;20025;-68
2022/06/09 11:32:45;;;;;;;7.97;2.83;;;18.70;99.90;;;;;;5036084;28;20032;-68
2022/06/09 11:35:23;;;;;;;2.20;1.63;;;18.80;99.90;;;;;;5036412;28;20463;-68
2022/06/09 11:38:12;;;;;;;1.88;1.65;;;19.00;99.90;;;;;;5035671;28;20095;-68
2022/06/09 11:40:55;;;;;;;2.40;1.10;;;19.00;99.90;;;;;;5034605;28;20112;-68
2022/06/09 11:43:30;;;;;;;2.50;1.17;;;19.10;99.90;;;;;;5035874;28;20021;-68
2022/06/09 11:46:02;;;;;;;2.08;1.27;;;19.40;99.90;;;;;;5036225;28;20048;-68
2022/06/09 11:48:42;;;;;;;2.58;1.90;;;19.50;99.90;;;;;;5035815;28;20056;-68
2022/06/09 11:51:08;;;;;;;1.30;1.02;;;19.60;99.90;;;;;;5035742;28;20022;-68
2022/06/09 11:53:44;;;;;;;1.88;1.40;;;19.80;99.90;;;;;;5035880;28;20040;-68
2022/06/09 11:56:43;;;;;;;3.05;1.20;;;19.80;99.90;;;;;;5035789;28;20104;-68
2022/06/09 11:59:11;;;;;;;3.22;1.45;;;20.40;99.90;;;;;;5035819;28;20496;-68
2022/06/09 12:01:40;;;;;;;4.22;1.73;;;20.10;99.90;;;;;;5035476;28;20036;-68
2022/06/09 12:04:49;;;;;;;2.60;1.75;;;19.80;99.90;;;;;;5035504;28;20029;-68
2022/06/09 12:07:26;;;;;;;3.95;1.27;;;19.50;99.90;;;;;;5033968;28;20040;-68
2022/06/09 12:10:00;;;;;;;3.85;1.58;;;19.40;99.90;;;;;;5035660;28;20021;-68
2022/06/09 12:12:35;;;;;;;5.63;2.08;;;19.20;99.90;;;;;;5035541;28;20110;-68
2022/06/09 12:15:20;;;;;;;6.15;2.53;;;18.80;99.90;;;;;;5035412;28;20047;-68
2022/06/09 12:18:23;;;;;;;2.45;1.63;;;18.80;99.90;;;;;;5035105;28;20026;-68
2022/06/09 12:20:49;;;;;;;2.85;2.00;;;19.20;99.90;;;;;;5035164;28;20018;-68
2022/06/09 12:23:36;;;;;;;3.75;2.20;;;19.60;99.90;;;;;;5034897;28;20112;-68
2022/06/09 12:26:11;;;;;;;2.35;2.05;;;19.90;99.90;;;;;;5035121;28;20109;-68
2022/06/09 12:28:49;;;;;;;6.78;5.07;;;19.60;99.90;;;;;;5034252;28;20044;-68
2022/06/09 12:31:25;;;;;;;14.20;8.55;;;18.90;99.90;;;;;;5034950;28;20474;-68
2022/06/09 12:34:11;;;;;;;13.15;10.10;;;18.50;99.90;;;;;;5034649;28;20472;-68
2022/06/09 12:36:55;;;;;;;16.10;10.82;;;18.50;99.90;;;;;;5024680;28;20056;-68
2022/06/09 12:39:47;;;;;;;23.58;16.92;;;18.60;99.90;;;;;;5034763;28;20029;-67
2022/06/09 12:42:23;;;;;;;17.40;15.48;;;18.30;99.90;;;;;;5031805;28;20041;-68
2022/06/09 12:45:02;;;;;;;21.23;16.98;;;17.80;99.90;;;;;;5034884;28;20470;-68
2022/06/09 12:47:27;;;;;;;20.55;15.90;;;17.90;99.90;;;;;;5034707;28;20113;-68
2022/06/09 12:49:59;;;;;;;19.27;15.95;;;17.60;99.90;;;;;;5034972;28;20079;-68
2022/06/09 12:52:45;;;;;;;17.40;12.98;;;17.40;99.90;;;;;;5034610;28;20021;-68
2022/06/09 12:55:14;;;;;;;18.25;13.57;;;17.20;99.90;;;;;;5034717;28;20382;-67
2022/06/09 12:58:02;;;;;;;20.63;15.32;;;16.90;99.90;;;;;;5034477;28;20096;-67
2022/06/09 13:00:35;;;;;;;17.42;13.65;;;16.80;99.90;;;;;;5034611;28;20017;-67
2022/06/09 13:03:01;;;;;;;12.10;10.43;;;17.00;99.90;;;;;;5034152;28;20021;-67
2022/06/09 13:05:34;;;;;;;12.43;8.73;;;17.10;99.90;;;;;;5032971;28;20390;-67
2022/06/09 13:08:12;;;;;;;10.77;9.20;;;17.20;99.90;;;;;;5034151;28;20386;-67
2022/06/09 13:10:40;;;;;;;13.32;11.23;;;17.20;99.90;;;;;;5034385;28;20524;-67
2022/06/09 13:13:30;;;;;;;14.32;10.93;;;17.20;99.90;;;;;;5034113;28;20033;-67
2022/06/09 13:16:02;;;;;;;14.15;11.07;;;17.00;99.90;;;;;;5034404;28;20033;-67
2022/06/09 13:18:37;;;;;;;15.15;11.80;;;16.90;99.90;;;;;;5033861;28;20029;-67
2022/06/09 13:21:16;;;;;;;22.30;13.27;;;16.80;99.90;;;;;;5034020;28;20547;-68